sensor_id;sensor_type;location;lat;lon;timestamp;P1;durP1;ratioP1;P2;durP2;ratioP2
13568;SDS011;6856;51.460;7.158;2023-10-09T00:01:48;10.23;;;7.37;;
13568;SDS011;6856;51.460;7.158;2023-10-09T00:04:23;11.00;;;7.87;;
13568;SDS011;6856;51.460;7.158;2023-10-09T00:06:56;10.70;;;7.67;;
13568;SDS011;6856;51.460;7.158;2023-10-09T00:09:31;10.37;;;7.43;;
13568;SDS011;6856;51.460;7.158;2023-10-09T00:12:19;14.43;;;8.37;;
13568;SDS011;6856;51.460;7.158;2023-10-09T00:14:55;13.50;;;7.30;;
13568;SDS011;6856;51.460;7.158;2023-10-09T00:17:39;10.67;;;7.63;;
13568;SDS011;6856;51.460;7.158;2023-10-09T00:20:18;12.07;;;7.63;;
13568;SDS011;6856;51.460;7.158;2023-10-09T00:22:56;10.77;;;8.13;;
13568;SDS011;6856;51.460;7.158;2023-10-09T00:25:29;9.47;;;6.93;;
13568;SDS011;6856;51.460;7.158;2023-10-09T00:28:09;9.37;;;7.27;;
13568;SDS011;6856;51.460;7.158;2023-10-09T00:30:44;10.50;;;7.03;;
13568;SDS011;6856;51.460;7.158;2023-10-09T00:33:18;10.97;;;7.07;;
13568;SDS011;6856;51.460;7.158;2023-10-09T00:35:53;8.47;;;5.97;;
13568;SDS011;6856;51.460;7.158;2023-10-09T00:38:27;10.37;;;6.97;;
13568;SDS011;6856;51.460;7.158;2023-10-09T00:41:05;10.47;;;6.67;;
13568;SDS011;6856;51.460;7.158;2023-10-09T00:43:52;9.10;;;6.63;;
13568;SDS011;6856;51.460;7.158;2023-10-09T00:46:32;9.40;;;6.37;;
13568;SDS011;6856;51.460;7.158;2023-10-09T00:49:07;8.60;;;6.50;;
13568;SDS011;6856;51.460;7.158;2023-10-09T00:51:42;9.23;;;6.43;;
13568;SDS011;6856;51.460;7.158;2023-10-09T00:54:28;8.27;;;6.37;;
13568;SDS011;6856;51.460;7.158;2023-10-09T00:57:12;9.43;;;6.13;;
13568;SDS011;6856;51.460;7.158;2023-10-09T00:59:49;11.87;;;6.97;;
13568;SDS011;6856;51.460;7.158;2023-10-09T01:02:31;8.67;;;6.13;;
13568;SDS011;6856;51.460;7.158;2023-10-09T01:05:08;9.57;;;6.67;;
13568;SDS011;6856;51.460;7.158;2023-10-09T01:07:51;9.30;;;6.40;;
13568;SDS011;6856;51.460;7.158;2023-10-09T01:10:29;12.07;;;6.63;;
13568;SDS011;6856;51.460;7.158;2023-10-09T01:13:23;9.53;;;6.20;;
13568;SDS011;6856;51.460;7.158;2023-10-09T01:16:12;9.37;;;6.23;;
13568;SDS011;6856;51.460;7.158;2023-10-09T01:18:49;10.43;;;7.27;;
13568;SDS011;6856;51.460;7.158;2023-10-09T01:21:28;9.23;;;6.43;;
13568;SDS011;6856;51.460;7.158;2023-10-09T01:24:05;10.93;;;5.73;;
13568;SDS011;6856;51.460;7.158;2023-10-09T01:26:41;10.93;;;6.20;;
13568;SDS011;6856;51.460;7.158;2023-10-09T01:29:20;8.10;;;5.53;;
13568;SDS011;6856;51.460;7.158;2023-10-09T01:31:59;8.77;;;6.27;;
13568;SDS011;6856;51.460;7.158;2023-10-09T01:34:36;8.23;;;5.77;;
13568;SDS011;6856;51.460;7.158;2023-10-09T01:37:21;10.60;;;5.60;;
13568;SDS011;6856;51.460;7.158;2023-10-09T01:39:59;8.83;;;5.67;;
13568;SDS011;6856;51.460;7.158;2023-10-09T01:42:53;8.43;;;5.43;;
13568;SDS011;6856;51.460;7.158;2023-10-09T01:45:28;8.53;;;5.47;;
13568;SDS011;6856;51.460;7.158;2023-10-09T01:48:07;10.53;;;5.43;;
13568;SDS011;6856;51.460;7.158;2023-10-09T01:50:44;6.67;;;5.27;;
13568;SDS011;6856;51.460;7.158;2023-10-09T01:53:20;9.87;;;5.50;;
13568;SDS011;6856;51.460;7.158;2023-10-09T01:56:09;9.80;;;5.80;;
13568;SDS011;6856;51.460;7.158;2023-10-09T01:58:46;10.23;;;6.67;;
13568;SDS011;6856;51.460;7.158;2023-10-09T02:01:22;9.20;;;5.83;;
13568;SDS011;6856;51.460;7.158;2023-10-09T02:03:58;8.53;;;5.30;;
13568;SDS011;6856;51.460;7.158;2023-10-09T02:06:40;6.83;;;5.37;;
13568;SDS011;6856;51.460;7.158;2023-10-09T02:09:13;7.77;;;5.83;;
13568;SDS011;6856;51.460;7.158;2023-10-09T02:11:55;8.07;;;5.47;;
13568;SDS011;6856;51.460;7.158;2023-10-09T02:14:30;7.60;;;5.27;;
13568;SDS011;6856;51.460;7.158;2023-10-09T02:17:04;6.83;;;5.17;;
13568;SDS011;6856;51.460;7.158;2023-10-09T02:19:49;8.33;;;5.27;;
13568;SDS011;6856;51.460;7.158;2023-10-09T02:22:23;9.60;;;5.57;;
13568;SDS011;6856;51.460;7.158;2023-10-09T02:24:58;8.10;;;5.43;;
13568;SDS011;6856;51.460;7.158;2023-10-09T02:27:39;7.17;;;5.33;;
13568;SDS011;6856;51.460;7.158;2023-10-09T02:30:19;8.37;;;5.60;;
13568;SDS011;6856;51.460;7.158;2023-10-09T02:32:58;8.13;;;5.43;;
13568;SDS011;6856;51.460;7.158;2023-10-09T02:35:38;9.90;;;5.83;;
13568;SDS011;6856;51.460;7.158;2023-10-09T02:38:14;9.43;;;5.33;;
13568;SDS011;6856;51.460;7.158;2023-10-09T02:40:49;8.60;;;6.13;;
13568;SDS011;6856;51.460;7.158;2023-10-09T02:43:40;7.80;;;5.20;;
13568;SDS011;6856;51.460;7.158;2023-10-09T02:46:18;7.57;;;5.70;;
13568;SDS011;6856;51.460;7.158;2023-10-09T02:48:52;7.53;;;5.30;;
13568;SDS011;6856;51.460;7.158;2023-10-09T02:51:27;9.27;;;5.87;;
13568;SDS011;6856;51.460;7.158;2023-10-09T02:54:05;9.30;;;5.60;;
13568;SDS011;6856;51.460;7.158;2023-10-09T02:56:51;7.40;;;5.10;;
13568;SDS011;6856;51.460;7.158;2023-10-09T02:59:30;9.77;;;5.70;;
13568;SDS011;6856;51.460;7.158;2023-10-09T03:02:03;8.77;;;5.30;;
13568;SDS011;6856;51.460;7.158;2023-10-09T03:04:37;7.33;;;4.90;;
13568;SDS011;6856;51.460;7.158;2023-10-09T03:07:13;8.73;;;5.20;;
13568;SDS011;6856;51.460;7.158;2023-10-09T03:09:47;10.17;;;6.53;;
13568;SDS011;6856;51.460;7.158;2023-10-09T03:12:21;7.73;;;5.60;;
13568;SDS011;6856;51.460;7.158;2023-10-09T03:14:59;8.03;;;5.20;;
13568;SDS011;6856;51.460;7.158;2023-10-09T03:17:37;7.07;;;5.40;;
13568;SDS011;6856;51.460;7.158;2023-10-09T03:20:14;7.53;;;5.37;;
13568;SDS011;6856;51.460;7.158;2023-10-09T03:22:49;8.23;;;5.10;;
13568;SDS011;6856;51.460;7.158;2023-10-09T03:25:23;8.20;;;5.67;;
13568;SDS011;6856;51.460;7.158;2023-10-09T03:27:58;7.03;;;5.13;;
13568;SDS011;6856;51.460;7.158;2023-10-09T03:30:33;8.43;;;5.70;;
13568;SDS011;6856;51.460;7.158;2023-10-09T03:33:09;8.23;;;5.53;;
13568;SDS011;6856;51.460;7.158;2023-10-09T03:35:43;9.17;;;5.97;;
13568;SDS011;6856;51.460;7.158;2023-10-09T03:38:17;9.27;;;6.43;;
13568;SDS011;6856;51.460;7.158;2023-10-09T03:40:51;8.30;;;5.77;;
13568;SDS011;6856;51.460;7.158;2023-10-09T03:43:24;8.50;;;5.73;;
13568;SDS011;6856;51.460;7.158;2023-10-09T03:46:05;8.13;;;5.70;;
13568;SDS011;6856;51.460;7.158;2023-10-09T03:48:51;7.20;;;4.90;;
13568;SDS011;6856;51.460;7.158;2023-10-09T03:51:28;7.37;;;5.37;;
13568;SDS011;6856;51.460;7.158;2023-10-09T03:54:04;9.63;;;5.73;;
13568;SDS011;6856;51.460;7.158;2023-10-09T03:56:39;6.90;;;5.07;;
13568;SDS011;6856;51.460;7.158;2023-10-09T03:59:13;9.00;;;5.43;;
13568;SDS011;6856;51.460;7.158;2023-10-09T04:01:49;6.43;;;4.63;;
13568;SDS011;6856;51.460;7.158;2023-10-09T04:04:24;8.47;;;5.43;;
13568;SDS011;6856;51.460;7.158;2023-10-09T04:07:00;7.40;;;4.83;;
13568;SDS011;6856;51.460;7.158;2023-10-09T04:09:33;7.57;;;5.10;;
13568;SDS011;6856;51.460;7.158;2023-10-09T04:12:11;8.67;;;5.70;;
13568;SDS011;6856;51.460;7.158;2023-10-09T04:14:57;6.50;;;4.73;;
13568;SDS011;6856;51.460;7.158;2023-10-09T04:17:36;8.43;;;5.23;;
13568;SDS011;6856;51.460;7.158;2023-10-09T04:20:14;7.03;;;5.00;;
13568;SDS011;6856;51.460;7.158;2023-10-09T04:23:02;10.60;;;5.70;;
13568;SDS011;6856;51.460;7.158;2023-10-09T04:25:37;9.33;;;5.13;;
13568;SDS011;6856;51.460;7.158;2023-10-09T04:28:22;8.53;;;5.33;;
13568;SDS011;6856;51.460;7.158;2023-10-09T04:30:55;7.77;;;5.33;;
13568;SDS011;6856;51.460;7.158;2023-10-09T04:33:32;9.27;;;5.37;;
13568;SDS011;6856;51.460;7.158;2023-10-09T04:36:16;6.37;;;4.53;;
13568;SDS011;6856;51.460;7.158;2023-10-09T04:38:54;6.53;;;4.90;;
13568;SDS011;6856;51.460;7.158;2023-10-09T04:41:47;6.93;;;5.10;;
13568;SDS011;6856;51.460;7.158;2023-10-09T04:44:44;6.57;;;4.83;;
13568;SDS011;6856;51.460;7.158;2023-10-09T04:47:34;8.93;;;5.40;;
13568;SDS011;6856;51.460;7.158;2023-10-09T04:50:11;6.53;;;5.03;;
13568;SDS011;6856;51.460;7.158;2023-10-09T04:53:06;8.70;;;5.13;;
13568;SDS011;6856;51.460;7.158;2023-10-09T04:55:54;7.63;;;5.27;;
13568;SDS011;6856;51.460;7.158;2023-10-09T04:58:28;6.33;;;4.90;;
13568;SDS011;6856;51.460;7.158;2023-10-09T05:01:04;8.50;;;5.77;;
13568;SDS011;6856;51.460;7.158;2023-10-09T05:03:49;7.73;;;4.60;;
13568;SDS011;6856;51.460;7.158;2023-10-09T05:06:30;6.87;;;4.80;;
13568;SDS011;6856;51.460;7.158;2023-10-09T05:09:21;6.87;;;4.93;;
13568;SDS011;6856;51.460;7.158;2023-10-09T05:11:56;8.17;;;4.93;;
13568;SDS011;6856;51.460;7.158;2023-10-09T05:14:47;7.03;;;4.93;;
13568;SDS011;6856;51.460;7.158;2023-10-09T05:17:39;9.03;;;4.80;;
13568;SDS011;6856;51.460;7.158;2023-10-09T05:20:24;8.00;;;5.07;;
13568;SDS011;6856;51.460;7.158;2023-10-09T05:23:16;6.20;;;4.83;;
13568;SDS011;6856;51.460;7.158;2023-10-09T05:25:56;6.57;;;5.17;;
13568;SDS011;6856;51.460;7.158;2023-10-09T05:28:30;7.47;;;4.63;;
13568;SDS011;6856;51.460;7.158;2023-10-09T05:31:20;10.23;;;4.87;;
13568;SDS011;6856;51.460;7.158;2023-10-09T05:34:10;7.67;;;5.10;;
13568;SDS011;6856;51.460;7.158;2023-10-09T05:36:51;7.83;;;5.63;;
13568;SDS011;6856;51.460;7.158;2023-10-09T05:39:44;7.27;;;4.87;;
13568;SDS011;6856;51.460;7.158;2023-10-09T05:42:38;7.17;;;5.03;;
13568;SDS011;6856;51.460;7.158;2023-10-09T05:45:15;6.53;;;4.67;;
13568;SDS011;6856;51.460;7.158;2023-10-09T05:48:07;7.37;;;5.20;;
13568;SDS011;6856;51.460;7.158;2023-10-09T05:51:10;7.50;;;4.90;;
13568;SDS011;6856;51.460;7.158;2023-10-09T05:53:46;7.90;;;5.23;;
13568;SDS011;6856;51.460;7.158;2023-10-09T05:56:44;8.33;;;5.40;;
13568;SDS011;6856;51.460;7.158;2023-10-09T06:00:01;7.53;;;4.90;;
13568;SDS011;6856;51.460;7.158;2023-10-09T06:02:53;7.40;;;5.20;;
13568;SDS011;6856;51.460;7.158;2023-10-09T06:05:44;8.23;;;5.50;;
13568;SDS011;6856;51.460;7.158;2023-10-09T06:08:33;6.80;;;4.60;;
13568;SDS011;6856;51.460;7.158;2023-10-09T06:11:36;6.30;;;4.73;;
13568;SDS011;6856;51.460;7.158;2023-10-09T06:14:20;6.87;;;5.03;;
13568;SDS011;6856;51.460;7.158;2023-10-09T06:16:57;6.90;;;5.30;;
13568;SDS011;6856;51.460;7.158;2023-10-09T06:19:49;7.37;;;4.77;;
13568;SDS011;6856;51.460;7.158;2023-10-09T06:22:30;8.23;;;5.47;;
13568;SDS011;6856;51.460;7.158;2023-10-09T06:25:35;7.20;;;4.77;;
13568;SDS011;6856;51.460;7.158;2023-10-09T06:28:11;6.67;;;4.40;;
13568;SDS011;6856;51.460;7.158;2023-10-09T06:30:46;8.67;;;5.60;;
13568;SDS011;6856;51.460;7.158;2023-10-09T06:33:21;9.73;;;5.73;;
13568;SDS011;6856;51.460;7.158;2023-10-09T06:36:03;6.63;;;4.90;;
13568;SDS011;6856;51.460;7.158;2023-10-09T06:38:49;7.03;;;4.97;;
13568;SDS011;6856;51.460;7.158;2023-10-09T06:41:39;9.77;;;5.27;;
13568;SDS011;6856;51.460;7.158;2023-10-09T06:44:16;7.67;;;4.97;;
13568;SDS011;6856;51.460;7.158;2023-10-09T06:47:11;7.23;;;5.07;;
13568;SDS011;6856;51.460;7.158;2023-10-09T06:49:45;6.97;;;4.67;;
13568;SDS011;6856;51.460;7.158;2023-10-09T06:52:38;6.60;;;5.13;;
13568;SDS011;6856;51.460;7.158;2023-10-09T06:55:35;6.87;;;4.83;;
13568;SDS011;6856;51.460;7.158;2023-10-09T06:58:21;7.80;;;5.57;;
13568;SDS011;6856;51.460;7.158;2023-10-09T07:00:58;6.90;;;5.33;;
13568;SDS011;6856;51.460;7.158;2023-10-09T07:03:50;6.77;;;5.07;;
13568;SDS011;6856;51.460;7.158;2023-10-09T07:06:31;8.67;;;5.13;;
13568;SDS011;6856;51.460;7.158;2023-10-09T07:09:20;8.43;;;5.10;;
13568;SDS011;6856;51.460;7.158;2023-10-09T07:11:54;9.03;;;5.97;;
13568;SDS011;6856;51.460;7.158;2023-10-09T07:14:35;6.90;;;4.73;;
13568;SDS011;6856;51.460;7.158;2023-10-09T07:17:54;8.60;;;5.60;;
13568;SDS011;6856;51.460;7.158;2023-10-09T07:20:28;7.27;;;5.40;;
13568;SDS011;6856;51.460;7.158;2023-10-09T07:23:19;8.60;;;5.77;;
13568;SDS011;6856;51.460;7.158;2023-10-09T07:26:00;9.23;;;5.67;;
13568;SDS011;6856;51.460;7.158;2023-10-09T07:28:49;9.40;;;5.70;;
13568;SDS011;6856;51.460;7.158;2023-10-09T07:31:32;8.50;;;5.53;;
13568;SDS011;6856;51.460;7.158;2023-10-09T07:34:19;9.70;;;6.07;;
13568;SDS011;6856;51.460;7.158;2023-10-09T07:37:26;8.43;;;6.20;;
13568;SDS011;6856;51.460;7.158;2023-10-09T07:40:02;10.77;;;6.70;;
13568;SDS011;6856;51.460;7.158;2023-10-09T07:42:39;8.60;;;6.30;;
13568;SDS011;6856;51.460;7.158;2023-10-09T07:45:24;11.47;;;7.10;;
13568;SDS011;6856;51.460;7.158;2023-10-09T07:48:16;9.40;;;6.63;;
13568;SDS011;6856;51.460;7.158;2023-10-09T07:50:57;8.70;;;5.87;;
13568;SDS011;6856;51.460;7.158;2023-10-09T07:53:32;7.43;;;5.77;;
13568;SDS011;6856;51.460;7.158;2023-10-09T07:56:14;7.80;;;5.97;;
13568;SDS011;6856;51.460;7.158;2023-10-09T07:58:56;9.40;;;5.23;;
13568;SDS011;6856;51.460;7.158;2023-10-09T08:01:55;6.80;;;4.83;;
13568;SDS011;6856;51.460;7.158;2023-10-09T08:04:30;7.57;;;5.47;;
13568;SDS011;6856;51.460;7.158;2023-10-09T08:07:14;8.33;;;5.50;;
13568;SDS011;6856;51.460;7.158;2023-10-09T08:10:18;7.97;;;5.50;;
13568;SDS011;6856;51.460;7.158;2023-10-09T08:13:09;9.73;;;5.93;;
13568;SDS011;6856;51.460;7.158;2023-10-09T08:16:06;9.60;;;5.33;;
13568;SDS011;6856;51.460;7.158;2023-10-09T08:18:48;8.90;;;5.87;;
13568;SDS011;6856;51.460;7.158;2023-10-09T08:21:23;9.63;;;6.47;;
13568;SDS011;6856;51.460;7.158;2023-10-09T08:24:10;7.30;;;5.43;;
13568;SDS011;6856;51.460;7.158;2023-10-09T08:27:09;9.53;;;5.87;;
13568;SDS011;6856;51.460;7.158;2023-10-09T08:30:18;10.23;;;5.90;;
13568;SDS011;6856;51.460;7.158;2023-10-09T08:33:01;8.47;;;5.83;;
13568;SDS011;6856;51.460;7.158;2023-10-09T08:35:38;9.33;;;6.47;;
13568;SDS011;6856;51.460;7.158;2023-10-09T08:38:20;8.23;;;6.13;;
13568;SDS011;6856;51.460;7.158;2023-10-09T08:40:56;9.13;;;6.33;;
13568;SDS011;6856;51.460;7.158;2023-10-09T08:43:49;7.67;;;5.70;;
13568;SDS011;6856;51.460;7.158;2023-10-09T08:46:25;7.67;;;5.67;;
13568;SDS011;6856;51.460;7.158;2023-10-09T08:49:00;9.63;;;5.97;;
13568;SDS011;6856;51.460;7.158;2023-10-09T08:51:37;7.50;;;5.60;;
13568;SDS011;6856;51.460;7.158;2023-10-09T08:54:13;9.17;;;5.97;;
13568;SDS011;6856;51.460;7.158;2023-10-09T08:56:48;7.50;;;5.50;;
13568;SDS011;6856;51.460;7.158;2023-10-09T08:59:24;7.17;;;5.80;;
13568;SDS011;6856;51.460;7.158;2023-10-09T09:01:58;9.37;;;6.47;;
13568;SDS011;6856;51.460;7.158;2023-10-09T09:04:35;8.40;;;5.83;;
13568;SDS011;6856;51.460;7.158;2023-10-09T09:07:24;7.53;;;6.07;;
13568;SDS011;6856;51.460;7.158;2023-10-09T09:10:00;7.90;;;5.97;;
13568;SDS011;6856;51.460;7.158;2023-10-09T09:12:49;8.70;;;5.27;;
13568;SDS011;6856;51.460;7.158;2023-10-09T09:15:26;7.90;;;5.67;;
13568;SDS011;6856;51.460;7.158;2023-10-09T09:18:04;8.53;;;6.23;;
13568;SDS011;6856;51.460;7.158;2023-10-09T09:20:40;7.83;;;5.73;;
13568;SDS011;6856;51.460;7.158;2023-10-09T09:23:17;8.93;;;5.97;;
13568;SDS011;6856;51.460;7.158;2023-10-09T09:25:56;8.27;;;6.17;;
13568;SDS011;6856;51.460;7.158;2023-10-09T09:28:33;8.20;;;5.70;;
13568;SDS011;6856;51.460;7.158;2023-10-09T09:31:12;7.43;;;5.17;;
13568;SDS011;6856;51.460;7.158;2023-10-09T09:33:46;10.07;;;5.87;;
13568;SDS011;6856;51.460;7.158;2023-10-09T09:36:30;8.60;;;6.07;;
13568;SDS011;6856;51.460;7.158;2023-10-09T09:39:09;8.70;;;6.00;;
13568;SDS011;6856;51.460;7.158;2023-10-09T09:41:50;7.90;;;5.60;;
13568;SDS011;6856;51.460;7.158;2023-10-09T09:44:24;14.80;;;6.10;;
13568;SDS011;6856;51.460;7.158;2023-10-09T09:47:05;7.97;;;5.57;;
13568;SDS011;6856;51.460;7.158;2023-10-09T09:49:40;7.93;;;6.00;;
13568;SDS011;6856;51.460;7.158;2023-10-09T09:52:15;8.17;;;5.60;;
13568;SDS011;6856;51.460;7.158;2023-10-09T09:54:50;8.03;;;5.53;;
13568;SDS011;6856;51.460;7.158;2023-10-09T09:57:24;8.77;;;5.80;;
13568;SDS011;6856;51.460;7.158;2023-10-09T10:00:00;8.83;;;5.70;;
13568;SDS011;6856;51.460;7.158;2023-10-09T10:02:40;8.17;;;5.33;;
13568;SDS011;6856;51.460;7.158;2023-10-09T10:05:15;8.50;;;6.37;;
13568;SDS011;6856;51.460;7.158;2023-10-09T10:07:50;8.57;;;5.63;;
13568;SDS011;6856;51.460;7.158;2023-10-09T10:10:36;7.33;;;5.33;;
13568;SDS011;6856;51.460;7.158;2023-10-09T10:13:54;9.17;;;6.07;;
13568;SDS011;6856;51.460;7.158;2023-10-09T10:25:51;7.80;;;5.53;;
13568;SDS011;6856;51.460;7.158;2023-10-09T10:28:32;9.33;;;5.83;;
13568;SDS011;6856;51.460;7.158;2023-10-09T10:31:10;7.63;;;5.10;;
13568;SDS011;6856;51.460;7.158;2023-10-09T10:34:04;10.93;;;5.90;;
13568;SDS011;6856;51.460;7.158;2023-10-09T10:36:44;6.93;;;5.30;;
13568;SDS011;6856;51.460;7.158;2023-10-09T10:39:18;7.83;;;5.57;;
13568;SDS011;6856;51.460;7.158;2023-10-09T10:42:13;7.77;;;5.70;;
13568;SDS011;6856;51.460;7.158;2023-10-09T10:45:05;8.90;;;6.13;;
13568;SDS011;6856;51.460;7.158;2023-10-09T10:48:01;8.17;;;5.73;;
13568;SDS011;6856;51.460;7.158;2023-10-09T10:50:40;8.27;;;5.97;;
13568;SDS011;6856;51.460;7.158;2023-10-09T10:53:18;7.87;;;5.63;;
13568;SDS011;6856;51.460;7.158;2023-10-09T10:55:57;8.30;;;5.77;;
13568;SDS011;6856;51.460;7.158;2023-10-09T10:58:52;7.37;;;5.10;;
13568;SDS011;6856;51.460;7.158;2023-10-09T11:01:43;7.47;;;5.17;;
13568;SDS011;6856;51.460;7.158;2023-10-09T11:04:25;8.47;;;5.37;;
13568;SDS011;6856;51.460;7.158;2023-10-09T11:07:16;7.97;;;5.50;;
13568;SDS011;6856;51.460;7.158;2023-10-09T11:10:01;7.40;;;5.50;;
13568;SDS011;6856;51.460;7.158;2023-10-09T11:12:43;7.80;;;5.20;;
13568;SDS011;6856;51.460;7.158;2023-10-09T11:15:38;9.57;;;5.73;;
13568;SDS011;6856;51.460;7.158;2023-10-09T11:18:27;8.37;;;5.50;;
13568;SDS011;6856;51.460;7.158;2023-10-09T11:21:01;7.97;;;5.50;;
13568;SDS011;6856;51.460;7.158;2023-10-09T11:23:49;6.43;;;4.73;;
13568;SDS011;6856;51.460;7.158;2023-10-09T11:26:53;7.00;;;5.00;;
13568;SDS011;6856;51.460;7.158;2023-10-09T11:29:26;6.20;;;4.50;;
13568;SDS011;6856;51.460;7.158;2023-10-09T11:32:22;9.10;;;4.67;;
13568;SDS011;6856;51.460;7.158;2023-10-09T11:35:09;7.67;;;5.80;;
13568;SDS011;6856;51.460;7.158;2023-10-09T11:37:54;7.73;;;5.07;;
13568;SDS011;6856;51.460;7.158;2023-10-09T11:40:28;7.40;;;5.53;;
13568;SDS011;6856;51.460;7.158;2023-10-09T11:43:23;7.68;;;4.75;;
13568;SDS011;6856;51.460;7.158;2023-10-09T11:46:17;6.87;;;4.80;;
13568;SDS011;6856;51.460;7.158;2023-10-09T11:49:05;7.57;;;5.13;;
13568;SDS011;6856;51.460;7.158;2023-10-09T11:52:06;7.70;;;5.50;;
13568;SDS011;6856;51.460;7.158;2023-10-09T11:54:58;8.82;;;6.20;;
13568;SDS011;6856;51.460;7.158;2023-10-09T11:57:32;7.57;;;6.07;;
13568;SDS011;6856;51.460;7.158;2023-10-09T12:00:08;8.93;;;6.07;;
13568;SDS011;6856;51.460;7.158;2023-10-09T12:02:57;7.70;;;6.07;;
13568;SDS011;6856;51.460;7.158;2023-10-09T12:05:37;8.60;;;5.17;;
13568;SDS011;6856;51.460;7.158;2023-10-09T12:08:14;10.13;;;5.77;;
13568;SDS011;6856;51.460;7.158;2023-10-09T12:10:47;11.07;;;7.10;;
13568;SDS011;6856;51.460;7.158;2023-10-09T12:13:22;9.85;;;6.13;;
13568;SDS011;6856;51.460;7.158;2023-10-09T12:15:58;7.30;;;5.87;;
13568;SDS011;6856;51.460;7.158;2023-10-09T12:18:32;7.23;;;5.63;;
13568;SDS011;6856;51.460;7.158;2023-10-09T12:21:06;8.90;;;6.00;;
13568;SDS011;6856;51.460;7.158;2023-10-09T12:23:47;8.87;;;6.13;;
13568;SDS011;6856;51.460;7.158;2023-10-09T12:26:24;11.00;;;5.70;;
13568;SDS011;6856;51.460;7.158;2023-10-09T12:28:58;7.70;;;5.03;;
13568;SDS011;6856;51.460;7.158;2023-10-09T12:31:34;10.68;;;6.15;;
13568;SDS011;6856;51.460;7.158;2023-10-09T12:34:08;7.50;;;5.40;;
13568;SDS011;6856;51.460;7.158;2023-10-09T12:36:46;8.40;;;5.50;;
13568;SDS011;6856;51.460;7.158;2023-10-09T12:39:21;7.63;;;5.50;;
13568;SDS011;6856;51.460;7.158;2023-10-09T12:41:54;8.80;;;5.47;;
13568;SDS011;6856;51.460;7.158;2023-10-09T12:44:30;9.32;;;5.97;;
13568;SDS011;6856;51.460;7.158;2023-10-09T12:47:05;9.03;;;5.37;;
13568;SDS011;6856;51.460;7.158;2023-10-09T12:49:43;9.48;;;6.15;;
13568;SDS011;6856;51.460;7.158;2023-10-09T12:52:17;7.93;;;5.13;;
13568;SDS011;6856;51.460;7.158;2023-10-09T12:54:51;10.00;;;6.40;;
13568;SDS011;6856;51.460;7.158;2023-10-09T12:57:25;7.30;;;5.65;;
13568;SDS011;6856;51.460;7.158;2023-10-09T12:59:59;9.05;;;5.60;;
13568;SDS011;6856;51.460;7.158;2023-10-09T13:02:43;8.38;;;5.95;;
13568;SDS011;6856;51.460;7.158;2023-10-09T13:05:17;7.95;;;5.88;;
13568;SDS011;6856;51.460;7.158;2023-10-09T13:07:57;8.75;;;5.30;;
13568;SDS011;6856;51.460;7.158;2023-10-09T13:10:33;10.37;;;6.50;;
13568;SDS011;6856;51.460;7.158;2023-10-09T13:13:09;7.85;;;5.93;;
13568;SDS011;6856;51.460;7.158;2023-10-09T13:15:44;7.43;;;5.45;;
13568;SDS011;6856;51.460;7.158;2023-10-09T13:18:21;8.47;;;5.80;;
13568;SDS011;6856;51.460;7.158;2023-10-09T13:20:55;8.05;;;5.68;;
13568;SDS011;6856;51.460;7.158;2023-10-09T13:23:29;7.00;;;5.90;;
13568;SDS011;6856;51.460;7.158;2023-10-09T13:26:09;8.13;;;6.18;;
13568;SDS011;6856;51.460;7.158;2023-10-09T13:28:53;10.52;;;5.45;;
13568;SDS011;6856;51.460;7.158;2023-10-09T13:31:28;10.55;;;6.43;;
13568;SDS011;6856;51.460;7.158;2023-10-09T13:34:08;8.82;;;5.78;;
13568;SDS011;6856;51.460;7.158;2023-10-09T13:36:47;8.98;;;5.68;;
13568;SDS011;6856;51.460;7.158;2023-10-09T13:39:28;8.43;;;5.80;;
13568;SDS011;6856;51.460;7.158;2023-10-09T13:42:09;7.88;;;5.75;;
13568;SDS011;6856;51.460;7.158;2023-10-09T13:44:45;7.65;;;5.68;;
13568;SDS011;6856;51.460;7.158;2023-10-09T13:47:20;7.70;;;5.73;;
13568;SDS011;6856;51.460;7.158;2023-10-09T13:50:02;8.73;;;6.57;;
13568;SDS011;6856;51.460;7.158;2023-10-09T13:52:39;8.45;;;6.18;;
13568;SDS011;6856;51.460;7.158;2023-10-09T13:55:13;7.30;;;5.75;;
13568;SDS011;6856;51.460;7.158;2023-10-09T13:57:48;10.05;;;6.47;;
13568;SDS011;6856;51.460;7.158;2023-10-09T14:00:23;10.45;;;6.22;;
13568;SDS011;6856;51.460;7.158;2023-10-09T14:03:05;7.72;;;5.55;;
13568;SDS011;6856;51.460;7.158;2023-10-09T14:05:45;10.90;;;6.93;;
13568;SDS011;6856;51.460;7.158;2023-10-09T14:08:26;10.23;;;6.25;;
13568;SDS011;6856;51.460;7.158;2023-10-09T14:11:01;9.90;;;6.18;;
13568;SDS011;6856;51.460;7.158;2023-10-09T14:13:35;9.30;;;6.30;;
13568;SDS011;6856;51.460;7.158;2023-10-09T14:16:11;9.98;;;6.60;;
13568;SDS011;6856;51.460;7.158;2023-10-09T14:18:55;9.57;;;6.85;;
13568;SDS011;6856;51.460;7.158;2023-10-09T14:21:32;10.48;;;6.28;;
13568;SDS011;6856;51.460;7.158;2023-10-09T14:24:09;7.18;;;5.93;;
13568;SDS011;6856;51.460;7.158;2023-10-09T14:26:50;8.77;;;6.47;;
13568;SDS011;6856;51.460;7.158;2023-10-09T14:29:28;10.18;;;6.25;;
13568;SDS011;6856;51.460;7.158;2023-10-09T14:32:02;10.10;;;6.53;;
13568;SDS011;6856;51.460;7.158;2023-10-09T14:34:37;7.90;;;5.68;;
13568;SDS011;6856;51.460;7.158;2023-10-09T14:37:16;8.48;;;6.45;;
13568;SDS011;6856;51.460;7.158;2023-10-09T14:39:51;8.98;;;6.03;;
13568;SDS011;6856;51.460;7.158;2023-10-09T14:42:26;10.60;;;6.70;;
13568;SDS011;6856;51.460;7.158;2023-10-09T14:45:00;10.73;;;7.32;;
13568;SDS011;6856;51.460;7.158;2023-10-09T14:47:39;9.05;;;6.60;;
13568;SDS011;6856;51.460;7.158;2023-10-09T14:50:13;7.90;;;6.03;;
13568;SDS011;6856;51.460;7.158;2023-10-09T14:52:49;10.15;;;6.53;;
13568;SDS011;6856;51.460;7.158;2023-10-09T14:55:23;9.65;;;6.72;;
13568;SDS011;6856;51.460;7.158;2023-10-09T14:58:01;8.88;;;6.57;;
13568;SDS011;6856;51.460;7.158;2023-10-09T15:00:37;8.18;;;6.28;;
13568;SDS011;6856;51.460;7.158;2023-10-09T15:03:18;9.02;;;6.85;;
13568;SDS011;6856;51.460;7.158;2023-10-09T15:05:53;9.25;;;6.35;;
13568;SDS011;6856;51.460;7.158;2023-10-09T15:08:28;9.85;;;6.88;;
13568;SDS011;6856;51.460;7.158;2023-10-09T15:11:04;9.20;;;6.65;;
13568;SDS011;6856;51.460;7.158;2023-10-09T15:13:38;7.25;;;5.90;;
13568;SDS011;6856;51.460;7.158;2023-10-09T15:16:12;10.18;;;7.22;;
13568;SDS011;6856;51.460;7.158;2023-10-09T15:18:46;10.98;;;7.85;;
13568;SDS011;6856;51.460;7.158;2023-10-09T15:21:23;8.52;;;6.32;;
13568;SDS011;6856;51.460;7.158;2023-10-09T15:24:00;8.68;;;6.50;;
13568;SDS011;6856;51.460;7.158;2023-10-09T15:26:34;8.27;;;6.63;;
13568;SDS011;6856;51.460;7.158;2023-10-09T15:29:07;9.75;;;7.13;;
13568;SDS011;6856;51.460;7.158;2023-10-09T15:31:41;11.27;;;7.57;;
13568;SDS011;6856;51.460;7.158;2023-10-09T15:34:15;11.45;;;7.93;;
13568;SDS011;6856;51.460;7.158;2023-10-09T15:36:50;8.95;;;6.47;;
13568;SDS011;6856;51.460;7.158;2023-10-09T15:39:26;8.50;;;6.50;;
13568;SDS011;6856;51.460;7.158;2023-10-09T15:42:00;10.37;;;7.40;;
13568;SDS011;6856;51.460;7.158;2023-10-09T15:44:35;9.88;;;6.80;;
13568;SDS011;6856;51.460;7.158;2023-10-09T15:47:09;9.80;;;6.85;;
13568;SDS011;6856;51.460;7.158;2023-10-09T15:49:43;9.38;;;7.13;;
13568;SDS011;6856;51.460;7.158;2023-10-09T15:52:18;9.70;;;7.00;;
13568;SDS011;6856;51.460;7.158;2023-10-09T15:54:54;8.20;;;6.78;;
13568;SDS011;6856;51.460;7.158;2023-10-09T15:57:28;9.38;;;6.68;;
13568;SDS011;6856;51.460;7.158;2023-10-09T16:00:02;9.03;;;5.93;;
13568;SDS011;6856;51.460;7.158;2023-10-09T16:02:45;9.07;;;6.38;;
13568;SDS011;6856;51.460;7.158;2023-10-09T16:05:23;8.48;;;6.43;;
13568;SDS011;6856;51.460;7.158;2023-10-09T16:07:57;8.05;;;5.85;;
13568;SDS011;6856;51.460;7.158;2023-10-09T16:10:36;9.80;;;6.35;;
13568;SDS011;6856;51.460;7.158;2023-10-09T16:13:10;9.38;;;6.47;;
13568;SDS011;6856;51.460;7.158;2023-10-09T16:15:44;8.87;;;7.13;;
13568;SDS011;6856;51.460;7.158;2023-10-09T16:18:20;9.33;;;7.17;;
13568;SDS011;6856;51.460;7.158;2023-10-09T16:20:54;11.17;;;7.00;;
13568;SDS011;6856;51.460;7.158;2023-10-09T16:23:28;11.48;;;7.45;;
13568;SDS011;6856;51.460;7.158;2023-10-09T16:26:03;9.03;;;7.23;;
13568;SDS011;6856;51.460;7.158;2023-10-09T16:28:38;9.60;;;7.23;;
13568;SDS011;6856;51.460;7.158;2023-10-09T16:31:12;8.35;;;6.65;;